Time;durP1;ratioP1;P1;durP2;ratioP2;P2;SDS_P1;SDS_P2;PMS_P1;PMS_P2;Temp;Humidity;BMP_temperature;BMP_pressure;BME280_temperature;BME280_humidity;BME280_pressure;Samples;Min_cycle;Max_cycle;Signal;HPM_P1;HPM_P2
2021/07/18 00:00:13;;;;;;;20.45;15.58;;;;;;;21.27;72.02;100220.89;1800986;80;21074;-64
2021/07/18 00:02:42;;;;;;;19.85;14.35;;;;;;;21.25;72.20;100213.97;1800951;80;21042;-63
2021/07/18 00:05:11;;;;;;;23.55;14.95;;;;;;;21.19;72.45;100207.36;1808558;77;21161;-64
2021/07/18 00:07:40;;;;;;;24.40;16.85;;;;;;;21.17;72.24;100212.88;1829865;77;21100;-63
2021/07/18 00:10:09;;;;;;;29.20;17.42;;;;;;;21.18;72.43;100211.03;1829794;78;21056;-64
2021/07/18 00:12:38;;;;;;;25.00;15.90;;;;;;;21.15;72.35;100214.82;1829851;78;21128;-64
2021/07/18 00:15:10;;;;;;;27.07;17.10;;;;;;;21.13;72.26;100214.12;1829879;78;21178;-64
2021/07/18 00:17:40;;;;;;;23.70;15.25;;;;;;;21.09;72.89;100214.06;1829849;78;21558;-64
2021/07/18 00:20:14;;;;;;;26.57;18.37;;;;;;;21.06;72.97;100198.77;1829902;78;21053;-63
2021/07/18 00:22:44;;;;;;;26.12;18.50;;;;;;;21.03;73.17;100207.94;1829781;78;21577;-64
2021/07/18 00:25:13;;;;;;;28.25;20.02;;;;;;;21.00;73.31;100208.20;1829871;78;21558;-64
2021/07/18 00:27:42;;;;;;;26.30;16.97;;;;;;;20.97;73.67;100204.00;1829827;78;21127;-63
2021/07/18 00:30:11;;;;;;;31.17;16.48;;;;;;;20.94;73.78;100206.94;1829826;78;21183;-63
2021/07/18 00:32:42;;;;;;;24.15;15.85;;;;;;;20.90;73.99;100216.23;1829862;78;21028;-63
2021/07/18 00:35:11;;;;;;;29.50;17.20;;;;;;;20.89;73.92;100213.70;1830014;78;21052;-65
2021/07/18 00:37:40;;;;;;;26.40;17.15;;;;;;;20.88;73.91;100212.86;1829783;78;21206;-63
2021/07/18 00:40:10;;;;;;;30.68;17.92;;;;;;;20.86;74.22;100216.64;1829815;78;21032;-63
2021/07/18 00:42:40;;;;;;;37.93;24.60;;;;;;;20.80;74.25;100221.59;1829805;78;21056;-63
2021/07/18 00:45:10;;;;;;;34.00;21.50;;;;;;;20.80;74.08;100213.56;1829953;78;21056;-63
2021/07/18 00:47:41;;;;;;;28.17;17.62;;;;;;;20.80;73.82;100206.00;1829786;78;21060;-64
2021/07/18 00:50:12;;;;;;;25.88;17.23;;;;;;;20.79;73.71;100201.16;1829906;78;21140;-63
2021/07/18 00:52:42;;;;;;;24.80;17.52;;;;;;;20.78;73.74;100204.80;1829850;78;21080;-63
2021/07/18 00:55:12;;;;;;;32.08;17.65;;;;;;;20.76;74.14;100210.78;1829812;78;21045;-63
2021/07/18 00:57:44;;;;;;;30.30;16.20;;;;;;;20.71;74.83;100203.69;1829966;78;21049;-63
2021/07/18 01:00:14;;;;;;;27.80;16.30;;;;;;;20.66;75.04;100205.06;1829372;77;21496;-65
2021/07/18 01:02:43;;;;;;;28.90;16.62;;;;;;;20.65;75.06;100204.23;1809417;78;21548;-63
2021/07/18 01:05:14;;;;;;;29.65;18.05;;;;;;;20.65;74.98;100203.39;1829789;78;21069;-63
2021/07/18 01:07:43;;;;;;;29.18;19.00;;;;;;;20.65;74.73;100204.23;1832846;78;21510;-63
2021/07/18 01:10:12;;;;;;;29.20;17.12;;;;;;;20.65;74.74;100208.23;1832703;77;21096;-63
2021/07/18 01:12:41;;;;;;;28.95;17.25;;;;;;;20.62;75.00;100199.17;1832773;77;21435;-64
2021/07/18 01:15:11;;;;;;;28.32;16.85;;;;;;;20.58;75.55;100208.40;1832711;78;21602;-63
2021/07/18 01:17:40;;;;;;;23.32;17.05;;;;;;;20.54;75.66;100204.31;1832869;77;21060;-63
2021/07/18 01:20:13;;;;;;;29.15;16.12;;;;;;;20.52;75.44;100203.61;1832816;78;21064;-63
2021/07/18 01:22:42;;;;;;;26.10;16.48;;;;;;;20.51;75.55;100208.12;1832793;78;21041;-63
2021/07/18 01:25:12;;;;;;;27.58;16.37;;;;;;;20.46;75.68;100202.33;1832690;78;21135;-65
2021/07/18 01:27:43;;;;;;;24.15;15.20;;;;;;;20.42;75.86;100203.09;1832822;77;21178;-64
2021/07/18 01:30:14;;;;;;;23.02;16.90;;;;;;;20.41;75.83;100200.05;1832860;78;21033;-63
2021/07/18 01:32:43;;;;;;;24.50;16.80;;;;;;;20.39;75.99;100206.03;1832779;78;21056;-64
2021/07/18 01:35:12;;;;;;;25.55;16.35;;;;;;;20.38;76.00;100210.17;1832733;78;21146;-64
2021/07/18 01:37:42;;;;;;;24.92;16.57;;;;;;;20.35;76.26;100213.98;1832726;78;21515;-65
2021/07/18 01:40:11;;;;;;;25.88;15.23;;;;;;;20.35;76.38;100209.97;1832632;78;21519;-64
2021/07/18 01:42:43;;;;;;;32.10;19.52;;;;;;;20.35;76.21;100203.28;1832661;78;21134;-64
2021/07/18 01:45:12;;;;;;;40.48;22.50;;;;;;;20.36;76.10;100210.80;1832733;78;21080;-64
2021/07/18 01:47:41;;;;;;;31.60;18.37;;;;;;;20.32;76.71;100206.22;1832750;78;21048;-64
2021/07/18 01:50:11;;;;;;;32.90;17.90;;;;;;;20.29;76.67;100209.66;1832742;78;21076;-64
2021/07/18 01:52:39;;;;;;;28.25;18.07;;;;;;;20.27;76.41;100204.94;1832821;78;21233;-64
2021/07/18 01:55:10;;;;;;;24.70;16.90;;;;;;;20.23;76.64;100213.71;1832723;78;21080;-64
2021/07/18 01:57:39;;;;;;;27.77;15.40;;;;;;;20.15;77.27;100205.53;1832685;78;21081;-63
2021/07/18 02:00:11;;;;;;;23.00;16.27;;;;;;;20.14;77.13;100212.72;1832686;78;21570;-63
2021/07/18 02:02:44;;;;;;;23.90;16.80;;;;;;;20.14;76.90;100217.20;1832731;77;21633;-63
2021/07/18 02:05:14;;;;;;;24.72;16.82;;;;;;;20.13;77.02;100214.19;1831955;78;21053;-64
2021/07/18 02:07:44;;;;;;;36.23;22.30;;;;;;;20.12;76.97;100216.48;1832809;78;21170;-63
2021/07/18 02:10:16;;;;;;;30.17;20.35;;;;;;;20.11;77.59;100218.32;1832838;78;21146;-63
2021/07/18 02:12:47;;;;;;;28.65;19.98;;;;;;;20.10;77.66;100212.61;1832739;78;21056;-63
2021/07/18 02:15:18;;;;;;;34.30;23.98;;;;;;;20.13;77.33;100210.17;1832637;77;21519;-64
2021/07/18 02:17:48;;;;;;;36.35;22.75;;;;;;;20.13;77.72;100206.16;1832570;77;21053;-63
2021/07/18 02:20:20;;;;;;;29.50;18.62;;;;;;;20.13;77.60;100215.52;1832699;78;21504;-63
2021/07/18 02:22:51;;;;;;;33.78;18.45;;;;;;;20.13;77.50;100212.84;1832760;78;21064;-64
2021/07/18 02:25:22;;;;;;;23.60;16.55;;;;;;;20.11;77.95;100213.47;1832562;77;21495;-64
2021/07/18 02:27:51;;;;;;;30.70;18.55;;;;;;;20.13;77.53;100212.34;1832586;78;21025;-64
2021/07/18 02:30:22;;;;;;;28.77;18.32;;;;;;;20.17;77.51;100217.77;1832848;78;21084;-64
2021/07/18 02:32:52;;;;;;;24.77;16.80;;;;;;;20.21;77.63;100217.02;1832722;78;21484;-63
2021/07/18 02:35:23;;;;;;;24.60;17.37;;;;;;;20.29;77.43;100221.68;1832647;78;21052;-63
2021/07/18 02:37:53;;;;;;;26.62;16.05;;;;;;;20.38;77.34;100225.75;1832700;78;21029;-63
2021/07/18 02:40:22;;;;;;;24.55;16.82;;;;;;;20.46;77.36;100226.90;1832622;77;21577;-65
2021/07/18 02:42:52;;;;;;;22.73;15.72;;;;;;;20.54;76.98;100221.20;1832684;78;21492;-64
2021/07/18 02:45:23;;;;;;;29.02;18.05;;;;;;;20.62;76.78;100231.27;1832726;78;21495;-64
2021/07/18 02:47:53;;;;;;;29.12;17.80;;;;;;;20.73;76.60;100231.62;1832705;78;21115;-61
2021/07/18 02:50:24;;;;;;;26.70;16.10;;;;;;;20.80;76.56;100232.30;1832715;78;21503;-62
2021/07/18 02:52:53;;;;;;;23.27;16.90;;;;;;;20.89;76.39;100236.44;1832627;78;21435;-63
2021/07/18 02:55:22;;;;;;;28.57;15.83;;;;;;;21.02;76.18;100230.32;1832706;78;21131;-62
2021/07/18 02:57:51;;;;;;;24.92;15.85;;;;;;;21.13;75.95;100232.86;1832460;78;21127;-62
2021/07/18 03:00:25;;;;;;;26.50;16.65;;;;;;;21.29;75.72;100236.83;1832040;78;21589;-64
2021/07/18 03:02:54;;;;;;;27.95;18.70;;;;;;;21.46;75.36;100232.61;1832578;77;21558;-63
2021/07/18 03:05:23;;;;;;;28.73;19.70;;;;;;;21.66;74.82;100229.41;1832501;77;21138;-63
2021/07/18 03:07:52;;;;;;;31.10;24.72;;;;;;;21.78;74.35;100230.44;1843334;77;21099;-64
2021/07/18 03:10:21;;;;;;;44.18;31.80;;;;;;;21.96;73.96;100240.39;1786996;78;21066;-63
2021/07/18 03:12:50;;;;;;;46.42;41.37;;;;;;;22.11;73.22;100236.74;1829064;77;21113;-64
2021/07/18 03:15:19;;;;;;;48.92;43.78;;;;;;;22.11;72.97;100240.30;1830891;78;21172;-62
2021/07/18 03:17:48;;;;;;;47.73;34.13;;;;;;;22.12;73.00;100235.77;1830884;78;21654;-63
2021/07/18 03:20:19;;;;;;;30.80;21.30;;;;;;;22.14;73.02;100238.64;1830924;78;21083;-63
2021/07/18 03:22:48;;;;;;;27.90;19.42;;;;;;;22.21;73.05;100236.22;1830922;78;21125;-63
2021/07/18 03:25:18;;;;;;;26.12;18.73;;;;;;;22.31;72.97;100237.05;1830920;78;21497;-63
2021/07/18 03:27:47;;;;;;;28.12;18.98;;;;;;;22.47;72.86;100239.59;1830956;78;21542;-62
2021/07/18 03:30:18;;;;;;;23.35;18.48;;;;;;;22.62;72.62;100235.41;1830897;78;21596;-63
2021/07/18 03:32:47;;;;;;;30.27;21.35;;;;;;;22.76;72.29;100235.41;1831073;78;21022;-62
2021/07/18 03:35:16;;;;;;;26.60;20.70;;;;;;;22.84;71.84;100238.67;1831151;78;21078;-62
2021/07/18 03:37:45;;;;;;;32.80;20.43;;;;;;;22.90;71.67;100239.40;1830925;78;21079;-62
2021/07/18 03:40:15;;;;;;;28.85;18.40;;;;;;;22.97;71.63;100235.61;1830932;78;21136;-62
2021/07/18 03:42:45;;;;;;;24.82;16.52;;;;;;;23.08;71.45;100234.08;1830819;78;21050;-62
2021/07/18 03:45:15;;;;;;;23.27;15.15;;;;;;;23.17;71.20;100232.31;1830821;78;21121;-62
2021/07/18 03:47:46;;;;;;;21.77;14.93;;;;;;;23.26;71.04;100240.28;1830925;78;21071;-62
2021/07/18 03:50:14;;;;;;;23.02;15.63;;;;;;;23.41;70.93;100235.71;1830861;77;21522;-63
2021/07/18 03:52:43;;;;;;;24.52;15.35;;;;;;;23.57;70.73;100237.66;1830912;78;21043;-62
2021/07/18 03:55:14;;;;;;;22.85;15.13;;;;;;;23.68;70.51;100238.75;1831009;78;21054;-63
2021/07/18 03:57:43;;;;;;;23.90;13.85;;;;;;;23.85;70.37;100239.25;1830959;78;21058;-63
2021/07/18 04:00:12;;;;;;;26.62;15.53;;;;;;;24.08;70.09;100240.87;1830886;78;21064;-63
2021/07/18 04:02:41;;;;;;;23.98;14.60;;;;;;;24.33;69.70;100246.41;1830896;78;21080;-62
2021/07/18 04:05:10;;;;;;;25.05;14.70;;;;;;;24.50;69.20;100241.09;1830991;78;21160;-62
2021/07/18 04:07:39;;;;;;;25.68;15.55;;;;;;;24.68;68.86;100241.86;1831027;78;21098;-62
2021/07/18 04:10:08;;;;;;;27.30;17.62;;;;;;;24.81;68.36;100245.42;1830855;78;21074;-63
2021/07/18 04:12:37;;;;;;;33.85;21.62;;;;;;;24.83;68.16;100242.89;1831143;77;21050;-62
2021/07/18 04:15:08;;;;;;;31.40;21.07;;;;;;;24.90;68.05;100248.48;1831035;78;21140;-62
2021/07/18 04:17:37;;;;;;;34.13;22.80;;;;;;;25.00;68.00;100246.97;1831004;78;21050;-62
2021/07/18 04:20:07;;;;;;;28.62;20.77;;;;;;;25.16;67.87;100254.25;1831053;78;21117;-62
2021/07/18 04:22:36;;;;;;;36.58;23.07;;;;;;;25.36;67.63;100246.20;1830872;78;21034;-62
2021/07/18 04:25:05;;;;;;;31.23;23.57;;;;;;;25.65;67.17;100248.87;1831031;78;21022;-62
2021/07/18 04:27:34;;;;;;;31.45;23.00;;;;;;;25.98;66.61;100249.68;1831020;78;21121;-62
2021/07/18 04:30:06;;;;;;;31.80;24.87;;;;;;;26.37;66.04;100252.09;1831014;78;21136;-62
2021/07/18 04:32:35;;;;;;;38.13;24.57;;;;;;;26.68;65.44;100251.32;1831260;78;21050;-62
2021/07/18 04:35:04;;;;;;;30.85;17.42;;;;;;;27.01;64.79;100247.08;1831015;78;21046;-63
2021/07/18 04:37:34;;;;;;;32.10;19.40;;;;;;;27.30;64.28;100243.17;1831105;78;21117;-62
2021/07/18 04:40:04;;;;;;;23.15;16.77;;;;;;;27.54;63.84;100237.23;1831142;78;21560;-62
2021/07/18 04:42:32;;;;;;;29.75;18.37;;;;;;;27.86;63.47;100233.87;1830990;78;21128;-62
2021/07/18 04:45:01;;;;;;;23.22;16.37;;;;;;;28.15;62.63;100241.20;1831113;78;21054;-62
2021/07/18 04:47:30;;;;;;;23.45;15.58;;;;;;;28.44;62.18;100242.19;1830941;78;21203;-62
2021/07/18 04:49:59;;;;;;;26.87;15.80;;;;;;;28.73;61.82;100238.61;1831024;78;21044;-62
2021/07/18 04:52:27;;;;;;;21.55;14.93;;;;;;;28.97;61.22;100239.30;1831127;78;21132;-62
2021/07/18 04:54:56;;;;;;;20.88;14.13;;;;;;;29.04;60.92;100242.92;1831003;78;21074;-62
2021/07/18 04:57:25;;;;;;;23.57;14.47;;;;;;;29.21;60.58;100240.81;1831022;78;21070;-62
2021/07/18 04:59:54;;;;;;;27.75;15.10;;;;;;;29.30;60.24;100249.66;1830997;78;21050;-62
2021/07/18 05:02:22;;;;;;;23.83;13.85;;;;;;;29.55;59.88;100242.80;1830916;78;21234;-62
2021/07/18 05:04:54;;;;;;;26.25;14.50;;;;;;;29.71;59.31;100239.45;1831008;78;21562;-62
2021/07/18 05:07:22;;;;;;;22.55;13.60;;;;;;;29.94;58.87;100244.14;1831080;78;21050;-62
2021/07/18 05:09:51;;;;;;;20.10;14.53;;;;;;;30.28;58.42;100242.97;1849161;77;21645;-62
2021/07/18 05:12:20;;;;;;;22.25;15.18;;;;;;;30.48;57.98;100237.67;1863485;77;21064;-62
2021/07/18 05:14:48;;;;;;;21.87;13.45;;;;;;;30.62;57.41;100239.90;1863482;77;21124;-62
2021/07/18 05:17:17;;;;;;;20.72;13.00;;;;;;;30.95;56.74;100235.95;1863481;77;21114;-62
2021/07/18 05:19:46;;;;;;;21.62;13.13;;;;;;;31.35;55.97;100245.52;1863556;77;21037;-62
2021/07/18 05:22:15;;;;;;;20.80;13.58;;;;;;;31.59;55.10;100235.09;1863504;77;21122;-62
2021/07/18 05:24:44;;;;;;;17.10;12.63;;;;;;;31.75;54.99;100233.30;1863559;76;21052;-62
2021/07/18 05:27:13;;;;;;;19.80;13.50;;;;;;;32.00;54.62;100236.70;1863534;77;21028;-62
2021/07/18 05:29:41;;;;;;;20.60;13.53;;;;;;;32.20;54.30;100245.69;1863537;77;21190;-62
2021/07/18 05:32:10;;;;;;;22.77;13.75;;;;;;;32.43;53.58;100238.92;1863555;77;21116;-62
2021/07/18 05:34:39;;;;;;;17.52;12.53;;;;;;;32.54;53.34;100242.83;1863611;77;21069;-62
2021/07/18 05:37:08;;;;;;;20.40;12.35;;;;;;;32.73;52.80;100241.94;1863516;77;21065;-62
2021/07/18 05:39:38;;;;;;;20.70;11.90;;;;;;;32.94;52.51;100239.93;1863368;77;21139;-62
2021/07/18 05:42:07;;;;;;;20.62;13.22;;;;;;;33.20;51.78;100241.67;1863526;77;21060;-62
2021/07/18 05:44:36;;;;;;;21.15;13.38;;;;;;;33.52;50.68;100244.37;1863525;77;21085;-62
2021/07/18 05:47:05;;;;;;;20.35;12.20;;;;;;;33.59;49.53;100239.70;1863592;77;21062;-62
2021/07/18 05:49:34;;;;;;;18.60;12.75;;;;;;;33.31;49.84;100236.03;1863464;76;21126;-62
2021/07/18 05:52:03;;;;;;;21.10;12.50;;;;;;;33.58;48.91;100233.92;1863463;77;21057;-64
2021/07/18 05:54:32;;;;;;;25.02;12.33;;;;;;;33.58;48.91;100233.92;1863545;77;21057;-62
2021/07/18 05:57:00;;;;;;;17.12;12.00;;;;;;;33.65;48.94;100233.36;1863502;76;21092;-62
2021/07/18 05:59:29;;;;;;;21.00;13.22;;;;;;;33.83;48.61;100187.52;1863628;77;21069;-62
2021/07/18 06:01:58;;;;;;;16.95;11.48;;;;;;;34.03;48.13;100220.89;1863514;77;21068;-62
2021/07/18 06:04:27;;;;;;;19.23;11.78;;;;;;;34.56;47.49;100223.52;1863499;77;21131;-62
2021/07/18 06:06:56;;;;;;;17.15;11.20;;;;;;;34.56;47.49;100223.52;1863398;77;21037;-62
2021/07/18 06:09:25;;;;;;;20.08;11.70;;;;;;;34.68;46.96;100226.86;1863426;77;21013;-62
2021/07/18 06:11:54;;;;;;;18.55;11.50;;;;;;;35.14;46.01;100220.72;1863508;77;21077;-62
2021/07/18 06:14:22;;;;;;;18.73;11.30;;;;;;;35.14;46.01;100220.72;1863479;76;21558;-62
2021/07/18 06:16:51;;;;;;;13.88;10.18;;;;;;;35.47;45.53;100223.99;1863593;77;21100;-62
2021/07/18 06:19:20;;;;;;;15.75;10.23;;;;;;;35.71;44.34;100223.48;1863505;77;21045;-62
2021/07/18 06:21:49;;;;;;;13.18;9.55;;;;;;;36.01;43.49;100220.62;1863536;77;21041;-62
2021/07/18 06:24:17;;;;;;;17.40;9.43;;;;;;;36.20;43.33;100221.86;1863559;77;21045;-62
2021/07/18 06:26:46;;;;;;;18.65;8.63;;;;;;;36.41;42.52;100225.33;1863483;77;21045;-62
2021/07/18 06:29:15;;;;;;;16.20;8.48;;;;;;;36.71;41.18;100222.91;1863625;77;21048;-62
2021/07/18 06:31:44;;;;;;;20.50;9.23;;;;;;;36.96;40.25;100225.81;1863416;77;21064;-63
2021/07/18 06:34:12;;;;;;;17.02;9.23;;;;;;;37.15;38.80;100216.31;1863512;77;21166;-62
2021/07/18 06:36:41;;;;;;;16.85;8.68;;;;;;;37.21;38.41;100220.80;1863585;77;21147;-62
2021/07/18 06:39:10;;;;;;;16.57;7.70;;;;;;;37.40;37.89;100223.29;1863588;77;21025;-62
2021/07/18 06:41:39;;;;;;;15.38;7.87;;;;;;;37.56;37.20;100225.20;1863516;76;21053;-62
2021/07/18 06:44:08;;;;;;;16.05;8.43;;;;;;;37.73;36.52;100231.24;1863507;77;21052;-62
2021/07/18 06:46:38;;;;;;;19.57;8.83;;;;;;;37.80;36.92;100233.27;1863410;77;21144;-62
2021/07/18 06:49:07;;;;;;;15.08;9.15;;;;;;;38.04;37.10;100229.20;1830688;77;21090;-63
2021/07/18 06:51:36;;;;;;;13.80;7.33;;;;;;;38.18;36.84;100226.09;1849511;77;21079;-62
2021/07/18 06:54:05;;;;;;;18.20;8.25;;;;;;;38.18;36.05;100226.09;1832341;78;21096;-62
2021/07/18 06:56:34;;;;;;;14.25;8.70;;;;;;;38.34;35.73;100225.20;1845511;77;21135;-63
2021/07/18 06:59:02;;;;;;;14.50;7.85;;;;;;;38.50;35.48;100230.89;1861904;76;21084;-63
2021/07/18 07:01:31;;;;;;;15.08;7.50;;;;;;;38.65;34.58;100226.96;1845332;77;21096;-61
2021/07/18 07:04:00;;;;;;;13.05;7.95;;;;;;;38.83;34.40;100231.80;1863454;77;21077;-62
2021/07/18 07:06:29;;;;;;;13.13;6.35;;;;;;;39.00;33.98;100232.53;1851070;77;21036;-66
2021/07/18 07:08:57;;;;;;;15.88;6.53;;;;;;;39.13;32.77;100228.00;1832331;77;21554;-66
2021/07/18 07:11:26;;;;;;;10.40;6.40;;;;;;;39.27;31.77;100227.55;1809663;78;21081;-64
2021/07/18 07:13:55;;;;;;;13.40;6.47;;;;;;;39.42;31.21;100229.06;1800899;80;21061;-62
2021/07/18 07:16:24;;;;;;;12.15;6.33;;;;;;;39.53;31.21;100225.31;1811734;78;21082;-62
2021/07/18 07:18:53;;;;;;;12.80;6.90;;;;;;;39.52;30.84;100229.14;1830914;78;21071;-62
2021/07/18 07:21:22;;;;;;;15.00;6.97;;;;;;;39.71;30.58;100220.45;1815537;78;21075;-60
2021/07/18 07:23:50;;;;;;;8.28;5.62;;;;;;;39.71;30.56;100220.45;1786812;80;21086;-62
2021/07/18 07:26:19;;;;;;;15.98;7.28;;;;;;;39.75;30.58;100226.55;1787171;78;21109;-65
2021/07/18 07:28:48;;;;;;;20.25;6.10;;;;;;;39.84;30.18;100225.51;1786946;80;21136;-62
2021/07/18 07:31:17;;;;;;;12.75;6.70;;;;;;;40.05;29.54;100233.91;1786959;80;21038;-66
2021/07/18 07:33:46;;;;;;;10.18;5.92;;;;;;;40.09;29.77;100237.78;1786402;80;21067;-64
2021/07/18 07:36:17;;;;;;;8.83;5.67;;;;;;;39.94;28.88;100233.84;1800030;78;21152;-63
2021/07/18 07:38:46;;;;;;;12.47;5.85;;;;;;;39.75;28.54;100235.38;1831013;78;21098;-62
2021/07/18 07:41:15;;;;;;;12.10;6.78;;;;;;;39.79;28.28;100235.12;1831011;78;21133;-62
2021/07/18 07:43:44;;;;;;;14.43;8.20;;;;;;;39.92;29.00;100233.28;1831012;78;21567;-62
2021/07/18 07:46:13;;;;;;;12.40;6.72;;;;;;;40.10;28.92;100225.64;1831012;78;21571;-61
2021/07/18 07:48:41;;;;;;;16.60;7.17;;;;;;;40.03;28.82;100226.46;1831024;78;21167;-61
2021/07/18 07:51:10;;;;;;;14.38;6.62;;;;;;;39.98;29.24;100223.67;1830946;78;21584;-62
2021/07/18 07:53:39;;;;;;;14.85;7.65;;;;;;;40.03;29.49;100220.95;1831031;78;21535;-62
2021/07/18 07:56:08;;;;;;;11.33;7.53;;;;;;;40.16;29.20;100221.83;1831029;77;21050;-61
2021/07/18 07:58:37;;;;;;;15.58;7.58;;;;;;;40.07;28.79;100220.69;1831039;78;21027;-61
2021/07/18 08:01:06;;;;;;;15.32;7.55;;;;;;;40.13;28.82;100212.70;1831055;78;21042;-61
2021/07/18 08:03:34;;;;;;;15.75;7.20;;;;;;;40.18;28.65;100210.53;1811201;77;21141;-66
2021/07/18 08:06:03;;;;;;;13.35;7.80;;;;;;;40.40;28.93;100217.25;1796508;78;21066;-67
2021/07/18 08:08:32;;;;;;;15.70;7.50;;;;;;;40.69;29.02;100214.29;1831128;77;21544;-61
2021/07/18 08:11:01;;;;;;;14.87;7.20;;;;;;;40.97;28.68;100212.14;1831088;77;21062;-61
2021/07/18 08:13:30;;;;;;;10.05;6.45;;;;;;;41.06;28.61;100217.95;1831041;78;21156;-61
2021/07/18 08:15:59;;;;;;;16.75;6.65;;;;;;;41.23;28.48;100210.79;1830872;77;21057;-61
2021/07/18 08:18:27;;;;;;;15.93;7.17;;;;;;;41.14;28.36;100209.09;1831050;78;21038;-61
2021/07/18 08:20:56;;;;;;;12.98;6.95;;;;;;;41.11;27.56;100212.41;1831041;78;21058;-61
2021/07/18 08:23:25;;;;;;;16.05;7.55;;;;;;;41.22;27.51;100209.94;1830990;77;21112;-61
2021/07/18 08:25:54;;;;;;;16.82;6.95;;;;;;;41.35;27.66;100208.55;1830996;78;21135;-61
2021/07/18 08:28:24;;;;;;;14.98;6.53;;;;;;;41.27;27.07;100214.09;1830959;78;21188;-62
2021/07/18 08:30:53;;;;;;;15.40;6.95;;;;;;;41.29;26.86;100208.29;1831024;78;21069;-61
2021/07/18 08:33:21;;;;;;;16.35;6.62;;;;;;;41.42;27.23;100204.95;1831033;78;21132;-61
2021/07/18 08:35:50;;;;;;;14.47;7.33;;;;;;;41.52;26.50;100211.56;1831076;78;21042;-61
2021/07/18 08:38:19;;;;;;;12.55;6.85;;;;;;;41.56;27.01;100206.59;1831018;78;21074;-61
2021/07/18 08:40:50;;;;;;;16.62;7.00;;;;;;;41.73;26.92;100213.78;1831013;78;21050;-61
2021/07/18 08:43:19;;;;;;;10.82;5.62;;;;;;;41.96;27.38;100215.06;1831263;77;21054;-61
2021/07/18 08:45:48;;;;;;;14.38;6.90;;;;;;;42.16;26.26;100216.39;1831066;78;21551;-61
2021/07/18 08:48:17;;;;;;;11.48;5.85;;;;;;;42.10;25.43;100214.77;1830952;78;21054;-61
2021/07/18 08:50:48;;;;;;;15.15;6.15;;;;;;;42.14;25.31;100213.09;1831021;78;21169;-61
2021/07/18 08:53:17;;;;;;;14.78;6.42;;;;;;;42.17;26.19;100213.09;1831015;77;21027;-61
2021/07/18 08:55:47;;;;;;;13.03;6.20;;;;;;;42.26;26.14;100210.01;1830889;78;21718;-62
2021/07/18 08:58:16;;;;;;;13.65;6.03;;;;;;;42.37;26.31;100212.14;1830951;78;21090;-62
2021/07/18 09:00:45;;;;;;;15.25;7.03;;;;;;;42.35;25.52;100212.98;1830988;78;21087;-62
2021/07/18 09:03:18;;;;;;;12.50;6.15;;;;;;;42.32;25.35;100208.86;1830976;78;21070;-62
2021/07/18 09:05:52;;;;;;;10.60;6.25;;;;;;;42.12;25.38;100213.93;1830905;78;21051;-62
2021/07/18 09:08:20;;;;;;;17.77;7.22;;;;;;;41.93;25.29;100204.59;1830656;78;21054;-62
2021/07/18 09:10:51;;;;;;;12.20;5.40;;;;;;;42.05;25.99;100207.84;1830979;78;21054;-62
2021/07/18 09:13:20;;;;;;;13.43;5.10;;;;;;;42.20;25.31;100197.30;1856548;77;21077;-62
2021/07/18 09:15:51;;;;;;;13.30;4.95;;;;;;;42.17;24.10;100202.85;1863558;77;21503;-62
2021/07/18 09:18:26;;;;;;;19.17;6.20;;;;;;;42.02;23.71;100205.10;1863776;77;21095;-62
2021/07/18 09:20:56;;;;;;;15.98;6.87;;;;;;;42.01;24.52;100199.28;1863525;77;21084;-62
2021/07/18 09:23:31;;;;;;;15.23;6.08;;;;;;;41.84;24.46;100198.81;1863770;77;21053;-62
2021/07/18 09:26:18;;;;;;;15.58;5.80;;;;;;;41.72;25.59;100193.58;1863496;77;21012;-62
2021/07/18 09:28:47;;;;;;;12.88;6.78;;;;;;;41.73;25.33;100198.02;1863534;77;21085;-62
2021/07/18 09:31:41;;;;;;;10.30;5.87;;;;;;;41.81;25.65;100189.69;1863445;77;22622;-62
2021/07/18 09:34:14;;;;;;;12.28;6.42;;;;;;;41.62;26.00;100194.41;1862585;77;21073;-62
2021/07/18 09:36:43;;;;;;;13.40;5.78;;;;;;;41.32;26.16;100185.65;1863494;77;21338;-62
2021/07/18 09:39:14;;;;;;;15.18;6.72;;;;;;;41.25;25.91;100187.30;1862890;77;21048;-63
2021/07/18 09:41:46;;;;;;;10.32;6.03;;;;;;;41.16;26.02;100178.45;1848241;77;21447;-65
2021/07/18 09:44:16;;;;;;;12.03;6.08;;;;;;;41.21;26.24;100186.77;1832363;77;21514;-64
2021/07/18 09:46:44;;;;;;;15.32;6.55;;;;;;;41.21;25.34;100182.63;1832477;78;21544;-62
2021/07/18 09:49:16;;;;;;;14.93;6.55;;;;;;;41.14;24.81;100190.33;1832419;78;21126;-62
2021/07/18 09:51:45;;;;;;;10.75;6.25;;;;;;;40.94;25.17;100187.02;1827046;78;21079;-62
2021/07/18 09:54:15;;;;;;;15.05;6.05;;;;;;;40.94;26.11;100183.69;1832379;78;21158;-62
2021/07/18 09:56:44;;;;;;;14.93;6.15;;;;;;;40.89;25.86;100180.92;1832412;78;21225;-62
2021/07/18 09:59:13;;;;;;;11.18;6.08;;;;;;;40.93;25.78;100183.44;1832528;78;21115;-62
2021/07/18 10:01:43;;;;;;;14.28;6.67;;;;;;;40.97;25.52;100179.02;1832486;78;21175;-62
2021/07/18 10:04:14;;;;;;;17.12;7.12;;;;;;;40.97;25.59;100181.77;1830558;77;21060;-61
2021/07/18 10:06:43;;;;;;;16.73;6.20;;;;;;;41.00;25.73;100183.95;1831759;78;21131;-62
2021/07/18 10:09:13;;;;;;;18.65;6.72;;;;;;;40.95;25.35;100174.33;1832431;77;21113;-61
2021/07/18 10:11:42;;;;;;;16.00;7.12;;;;;;;40.87;25.35;100177.62;1832427;78;21536;-62
2021/07/18 10:14:11;;;;;;;10.88;5.90;;;;;;;40.78;25.14;100172.37;1832437;78;21071;-62
2021/07/18 10:16:40;;;;;;;12.40;5.70;;;;;;;40.72;25.08;100171.50;1832551;78;21044;-62
2021/07/18 10:19:09;;;;;;;15.18;6.17;;;;;;;40.82;25.75;100180.37;1832306;77;21126;-61
2021/07/18 10:21:38;;;;;;;14.47;5.78;;;;;;;40.80;25.74;100172.39;1832361;78;21091;-62
2021/07/18 10:24:08;;;;;;;15.63;6.67;;;;;;;40.89;26.41;100176.78;1832407;78;21141;-62
2021/07/18 10:26:37;;;;;;;11.95;6.17;;;;;;;41.06;27.31;100171.83;1832262;78;21088;-62
2021/07/18 10:29:06;;;;;;;13.43;7.08;;;;;;;41.23;26.53;100167.98;1832330;78;21087;-62
2021/07/18 10:31:38;;;;;;;12.73;6.53;;;;;;;41.27;26.27;100169.08;1832278;78;21657;-63
2021/07/18 10:34:08;;;;;;;12.03;6.75;;;;;;;41.20;26.87;100168.50;1832076;78;21141;-62
2021/07/18 10:36:38;;;;;;;16.10;6.22;;;;;;;41.23;27.43;100167.98;1832694;77;21048;-61
2021/07/18 10:39:25;;;;;;;20.02;6.67;;;;;;;41.02;27.13;100163.83;1832651;78;21147;-61
2021/07/18 10:41:54;;;;;;;19.90;6.83;;;;;;;40.94;27.08;100161.61;1832329;78;21128;-62
2021/07/18 10:44:23;;;;;;;13.05;6.30;;;;;;;40.83;26.66;100155.82;1832382;78;21075;-62
2021/07/18 10:46:56;;;;;;;17.77;6.37;;;;;;;40.74;27.19;100154.67;1832338;78;21177;-61
2021/07/18 10:49:47;;;;;;;14.53;6.03;;;;;;;40.52;26.33;100152.47;1832423;78;21087;-61
2021/07/18 10:52:17;;;;;;;12.60;6.77;;;;;;;40.32;26.83;100151.84;1832846;78;21486;-62
2021/07/18 10:54:46;;;;;;;13.78;6.15;;;;;;;40.32;27.46;100148.23;1832343;78;22068;-61
2021/07/18 10:57:29;;;;;;;11.70;5.80;;;;;;;40.11;27.33;100145.98;1832347;78;21246;-61
2021/07/18 11:00:00;;;;;;;13.95;6.55;;;;;;;39.83;27.34;100145.30;1832340;78;21084;-61
2021/07/18 11:02:34;;;;;;;13.78;6.50;;;;;;;39.49;27.30;100144.84;1828205;77;21100;-61
2021/07/18 11:05:05;;;;;;;14.05;6.62;;;;;;;39.09;27.80;100142.09;1832352;78;21133;-62
2021/07/18 11:07:36;;;;;;;15.30;7.05;;;;;;;38.96;28.02;100143.33;1832722;78;21163;-61
2021/07/18 11:10:14;;;;;;;15.00;6.70;;;;;;;38.74;28.04;100138.74;1831858;78;21178;-61
2021/07/18 11:12:45;;;;;;;19.70;6.83;;;;;;;38.55;29.05;100140.20;1832391;78;21080;-61
2021/07/18 11:15:24;;;;;;;14.55;6.85;;;;;;;38.37;30.11;100139.45;1795559;78;21584;-62
2021/07/18 11:18:01;;;;;;;15.50;7.20;;;;;;;38.19;30.68;100133.76;1794296;80;21532;-61
2021/07/18 11:20:41;;;;;;;17.17;6.85;;;;;;;38.04;30.47;100133.02;1795245;80;21050;-61
2021/07/18 11:23:12;;;;;;;12.20;6.87;;;;;;;37.86;30.06;100135.53;1795168;80;21090;-61